createdAt,value
2022-12-08T00:01:15.518Z,6.97
2022-12-08T00:03:43.558Z,5.23
2022-12-08T00:06:50.292Z,6.27
2022-12-08T00:09:38.567Z,6.77
2022-12-08T00:12:08.116Z,6.60
2022-12-08T00:14:40.847Z,5.50
2022-12-08T00:17:09.869Z,6.30
2022-12-08T00:19:39.186Z,5.43
2022-12-08T00:22:10.329Z,6.03
2022-12-08T00:24:39.887Z,5.90
2022-12-08T00:27:09.504Z,6.00
2022-12-08T00:29:37.054Z,6.97
2022-12-08T00:32:04.956Z,7.13
2022-12-08T00:34:33.124Z,6.90
2022-12-08T00:37:00.677Z,6.23
2022-12-08T00:39:27.706Z,5.90
2022-12-08T00:42:12.674Z,5.47
2022-12-08T00:44:43.844Z,6.00
2022-12-08T00:47:11.645Z,5.20
2022-12-08T00:49:38.561Z,6.27
2022-12-08T00:52:05.605Z,6.37
2022-12-08T00:54:32.638Z,5.47
2022-12-08T00:56:59.576Z,5.63
2022-12-08T00:59:26.641Z,6.77
2022-12-08T01:01:53.521Z,7.23
2022-12-08T01:04:21.015Z,6.37
2022-12-08T01:06:48.259Z,6.03
2022-12-08T01:09:16.306Z,4.87
2022-12-08T01:11:44.762Z,6.10
2022-12-08T01:14:12.898Z,6.20
2022-12-08T01:16:41.596Z,4.83
2022-12-08T01:19:11.235Z,5.43
2022-12-08T01:21:38.260Z,6.33
2022-12-08T01:24:05.649Z,6.23
2022-12-08T01:26:32.581Z,5.43
2022-12-08T01:28:59.540Z,6.37
2022-12-08T01:31:26.594Z,5.80
2022-12-08T01:33:53.592Z,5.20
2022-12-08T01:36:25.140Z,6.90
2022-12-08T01:38:53.518Z,7.10
2022-12-08T01:41:23.390Z,6.37
2022-12-08T01:44:08.562Z,6.77
2022-12-08T01:46:38.742Z,5.93
2022-12-08T01:49:19.608Z,7.07
2022-12-08T01:51:59.195Z,6.03
2022-12-08T01:54:42.726Z,7.73
2022-12-08T01:57:17.068Z,7.23
2022-12-08T01:59:51.396Z,5.10
2022-12-08T02:02:18.429Z,6.37
2022-12-08T02:04:45.537Z,5.50
2022-12-08T02:07:14.813Z,6.13
2022-12-08T02:09:42.090Z,6.00
2022-12-08T02:12:10.455Z,6.57
2022-12-08T02:15:01.837Z,4.37
2022-12-08T02:17:57.569Z,8.37
2022-12-08T02:20:38.046Z,6.57
2022-12-08T02:23:23.241Z,6.73
2022-12-08T02:26:37.040Z,5.23
2022-12-08T02:29:18.610Z,5.34
2022-12-08T02:32:12.017Z,6.27
2022-12-08T02:35:08.097Z,5.67
2022-12-08T02:38:18.517Z,6.43
2022-12-08T02:40:58.081Z,6.57
2022-12-08T02:43:45.546Z,7.27
2022-12-08T02:46:18.197Z,6.93
2022-12-08T02:48:45.699Z,6.13
2022-12-08T02:51:12.616Z,7.03
2022-12-08T02:53:40.665Z,6.73
2022-12-08T02:56:38.073Z,8.10
2022-12-08T02:59:28.213Z,7.32
2022-12-08T03:02:25.841Z,7.20
2022-12-08T03:05:31.916Z,7.00
2022-12-08T03:08:41.462Z,5.60
2022-12-08T03:11:33.555Z,7.53
2022-12-08T03:14:03.876Z,5.50
2022-12-08T03:16:34.244Z,6.37
2022-12-08T03:19:09.729Z,6.37
2022-12-08T03:21:38.313Z,7.13
2022-12-08T03:24:08.186Z,7.27
2022-12-08T03:26:41.871Z,7.80
2022-12-08T03:29:08.805Z,5.23
2022-12-08T03:31:50.633Z,7.97
2022-12-08T03:34:18.897Z,8.73
2022-12-08T03:36:46.330Z,7.40
2022-12-08T03:39:13.413Z,7.57
2022-12-08T03:41:40.315Z,5.53
2022-12-08T03:44:07.457Z,6.60
2022-12-08T03:46:34.376Z,7.30
2022-12-08T03:49:01.386Z,7.60
2022-12-08T03:51:28.501Z,8.53
2022-12-08T03:53:55.466Z,5.53
2022-12-08T03:56:31.801Z,6.90
2022-12-08T03:58:59.333Z,8.13
2022-12-08T04:01:27.501Z,5.93
2022-12-08T04:03:54.551Z,5.87
2022-12-08T04:06:22.228Z,4.70
2022-12-08T04:08:50.827Z,7.77
2022-12-08T04:11:18.992Z,8.43
2022-12-08T04:13:46.263Z,6.47
2022-12-08T04:16:22.694Z,7.57
2022-12-08T04:18:50.039Z,6.47
2022-12-08T04:21:17.187Z,8.90
2022-12-08T04:23:44.149Z,7.03
2022-12-08T04:26:11.898Z,7.10
2022-12-08T04:28:38.926Z,8.27
2022-12-08T04:31:06.530Z,8.03
2022-12-08T04:33:33.575Z,6.97
2022-12-08T04:36:00.586Z,7.57
2022-12-08T04:38:28.531Z,8.43
2022-12-08T04:40:55.453Z,7.37
2022-12-08T04:43:22.538Z,7.47
2022-12-08T04:45:49.529Z,6.37
2022-12-08T04:48:16.588Z,7.33
2022-12-08T04:50:45.383Z,6.07
2022-12-08T04:53:13.757Z,7.33
2022-12-08T04:55:43.854Z,7.40
2022-12-08T04:58:15.659Z,7.97
2022-12-08T05:00:43.395Z,8.43
2022-12-08T05:03:10.554Z,6.90
2022-12-08T05:05:37.512Z,6.57
2022-12-08T05:08:05.177Z,7.93
2022-12-08T05:10:32.843Z,7.37
2022-12-08T05:13:00.195Z,8.50
2022-12-08T05:15:27.142Z,8.33
2022-12-08T05:17:54.120Z,7.83
2022-12-08T05:20:21.049Z,7.40
2022-12-08T05:22:47.993Z,6.97
2022-12-08T05:25:15.145Z,8.13
2022-12-08T05:27:43.260Z,4.90
2022-12-08T05:30:10.461Z,7.17
2022-12-08T05:32:37.460Z,6.20
2022-12-08T05:35:04.705Z,6.57
2022-12-08T05:37:31.714Z,6.17
2022-12-08T05:39:58.751Z,7.30
2022-12-08T05:42:25.680Z,5.73
2022-12-08T05:44:52.804Z,5.50
2022-12-08T05:47:19.908Z,7.83
2022-12-08T05:49:46.897Z,5.63
2022-12-08T05:52:13.914Z,7.30
2022-12-08T05:54:40.788Z,6.77
2022-12-08T05:57:07.635Z,6.47
2022-12-08T05:59:34.595Z,7.53
2022-12-08T06:02:01.686Z,6.43
2022-12-08T06:04:28.652Z,6.53
2022-12-08T06:06:55.868Z,7.53
2022-12-08T06:09:22.800Z,6.80
2022-12-08T06:11:49.770Z,5.93
2022-12-08T06:14:16.816Z,6.37
2022-12-08T06:16:43.864Z,7.27
2022-12-08T06:19:10.901Z,5.83
2022-12-08T06:21:37.825Z,6.97
2022-12-08T06:24:04.898Z,6.83
2022-12-08T06:26:31.815Z,4.40
2022-12-08T06:29:00.814Z,5.60
2022-12-08T06:31:28.493Z,6.07
2022-12-08T06:33:55.586Z,5.37
2022-12-08T06:36:24.967Z,4.87
2022-12-08T06:38:52.728Z,6.17
2022-12-08T06:41:19.814Z,6.50
2022-12-08T06:43:46.780Z,6.30
2022-12-08T06:46:17.381Z,6.60
2022-12-08T06:48:44.696Z,6.20
2022-12-08T06:51:13.009Z,4.60
2022-12-08T06:53:40.948Z,3.60
2022-12-08T06:56:08.295Z,5.00
2022-12-08T06:58:36.113Z,4.27
2022-12-08T07:01:09.127Z,5.17
2022-12-08T07:03:37.537Z,5.63
2022-12-08T07:06:05.329Z,4.97
2022-12-08T07:08:33.630Z,4.53
2022-12-08T07:11:06.204Z,5.07
2022-12-08T07:13:33.246Z,5.47
2022-12-08T07:16:00.108Z,5.63
2022-12-08T07:18:27.017Z,5.13
2022-12-08T07:20:53.902Z,4.73
2022-12-08T07:23:20.843Z,5.33
2022-12-08T07:25:47.803Z,5.30
2022-12-08T07:28:14.820Z,4.93
2022-12-08T07:30:41.809Z,4.47
2022-12-08T07:33:08.874Z,5.00
2022-12-08T07:35:35.892Z,4.70
2022-12-08T07:38:02.972Z,5.07
2022-12-08T07:40:29.877Z,5.73
2022-12-08T07:42:56.843Z,5.60
2022-12-08T07:45:31.112Z,5.33
2022-12-08T07:47:58.659Z,5.37
2022-12-08T07:50:25.533Z,4.80
2022-12-08T07:52:52.431Z,5.60
2022-12-08T07:55:19.493Z,5.07
2022-12-08T07:57:46.359Z,6.47
2022-12-08T08:00:14.305Z,4.53
2022-12-08T08:02:41.889Z,4.57
2022-12-08T08:05:09.535Z,5.17
2022-12-08T08:07:37.378Z,5.60
2022-12-08T08:10:05.785Z,5.80
2022-12-08T08:12:33.534Z,5.20
2022-12-08T08:15:01.850Z,4.87
2022-12-08T08:17:31.328Z,5.67
2022-12-08T08:19:58.383Z,5.47
2022-12-08T08:22:26.885Z,5.27
2022-12-08T08:24:54.451Z,5.13
2022-12-08T08:27:21.495Z,4.67
2022-12-08T08:29:48.497Z,5.23
2022-12-08T08:32:15.395Z,5.27
2022-12-08T08:34:42.400Z,6.13
2022-12-08T08:37:09.352Z,6.93
2022-12-08T08:39:36.404Z,5.50
2022-12-08T08:42:03.446Z,4.77
2022-12-08T08:44:30.391Z,5.60
2022-12-08T08:46:57.408Z,7.23
2022-12-08T08:49:24.676Z,5.63
2022-12-08T08:51:52.334Z,4.73
2022-12-08T08:54:20.486Z,4.93
2022-12-08T08:56:48.477Z,5.67
2022-12-08T08:59:15.437Z,4.97
2022-12-08T09:01:42.382Z,5.33
2022-12-08T09:04:10.365Z,6.63
2022-12-08T09:06:38.151Z,7.00
2022-12-08T09:09:05.667Z,4.83
2022-12-08T09:11:33.202Z,6.43
2022-12-08T09:14:00.480Z,6.97
2022-12-08T09:16:27.523Z,6.10
2022-12-08T09:18:54.604Z,5.93
2022-12-08T09:21:25.887Z,5.83
2022-12-08T09:23:55.056Z,5.83
2022-12-08T09:26:22.623Z,5.30
2022-12-08T09:28:51.519Z,4.57
2022-12-08T09:31:19.962Z,5.70
2022-12-08T09:33:47.827Z,6.20
2022-12-08T09:36:15.635Z,5.53
2022-12-08T09:38:42.627Z,6.10
2022-12-08T09:41:48.501Z,6.10
2022-12-08T09:44:55.293Z,5.30
2022-12-08T09:47:35.497Z,5.30
2022-12-08T09:50:18.091Z,6.63
2022-12-08T09:52:59.836Z,5.90
2022-12-08T09:55:53.156Z,5.23
2022-12-08T09:58:22.222Z,5.47
2022-12-08T10:00:49.177Z,6.13
2022-12-08T10:03:17.068Z,5.33
2022-12-08T10:05:56.079Z,6.57
2022-12-08T10:08:36.392Z,5.50
2022-12-08T10:11:14.416Z,6.60
2022-12-08T10:14:06.845Z,6.00
2022-12-08T10:16:39.493Z,4.80
2022-12-08T10:19:25.605Z,6.50
2022-12-08T10:21:53.855Z,6.10
2022-12-08T10:25:00.305Z,6.60
2022-12-08T10:27:28.022Z,5.77
2022-12-08T10:29:55.029Z,6.23
2022-12-08T10:32:24.649Z,6.20
2022-12-08T10:35:12.255Z,5.87
2022-12-08T10:37:40.025Z,5.10
2022-12-08T10:40:19.094Z,6.03
2022-12-08T10:42:53.622Z,5.97
2022-12-08T10:45:23.685Z,5.73
2022-12-08T10:48:18.466Z,6.37
2022-12-08T10:50:55.761Z,6.07
2022-12-08T10:53:24.832Z,6.23
2022-12-08T10:56:05.103Z,6.83
2022-12-08T10:58:42.484Z,6.63
2022-12-08T11:01:21.687Z,6.60
2022-12-08T11:04:01.237Z,5.97
2022-12-08T11:06:35.057Z,6.37
2022-12-08T11:09:15.755Z,6.70
2022-12-08T11:11:51.850Z,6.80
2022-12-08T11:14:32.477Z,6.18
2022-12-08T11:17:08.745Z,7.67
2022-12-08T11:19:41.032Z,6.88
2022-12-08T11:22:30.075Z,6.50
2022-12-08T11:25:02.908Z,7.20
2022-12-08T11:27:33.272Z,6.53
2022-12-08T11:30:02.223Z,5.23
2022-12-08T11:32:31.361Z,5.90
2022-12-08T11:35:03.945Z,5.77
2022-12-08T11:37:40.665Z,6.60
2022-12-08T11:40:23.331Z,6.57
2022-12-08T11:42:59.959Z,6.70
2022-12-08T11:45:32.571Z,8.40
2022-12-08T11:48:16.990Z,7.03
2022-12-08T11:50:55.581Z,6.90
2022-12-08T11:53:44.530Z,6.20
2022-12-08T11:56:35.013Z,6.50
2022-12-08T11:59:25.913Z,6.50
2022-12-08T12:01:53.486Z,6.20
2022-12-08T12:04:42.460Z,7.07
2022-12-08T12:07:48.155Z,7.47
2022-12-08T12:10:27.083Z,6.97
2022-12-08T12:13:02.804Z,7.37
2022-12-08T12:15:54.917Z,7.97
2022-12-08T12:18:50.122Z,6.57
2022-12-08T12:21:26.607Z,7.10
2022-12-08T12:24:10.427Z,7.18
2022-12-08T12:26:49.337Z,7.73
2022-12-08T12:29:23.913Z,7.63
2022-12-08T12:31:59.336Z,7.33
2022-12-08T12:34:44.744Z,7.10
2022-12-08T12:37:15.397Z,5.97
2022-12-08T12:40:00.914Z,8.50
2022-12-08T12:42:44.450Z,7.13
2022-12-08T12:45:17.109Z,7.70
2022-12-08T12:47:55.859Z,6.97
2022-12-08T12:50:32.506Z,5.90
2022-12-08T12:53:15.672Z,7.13
2022-12-08T12:55:45.843Z,7.27
2022-12-08T12:58:28.001Z,5.53
2022-12-08T13:01:10.362Z,8.63
2022-12-08T13:04:02.687Z,8.70
2022-12-08T13:06:41.247Z,6.13
2022-12-08T13:09:20.729Z,6.87
2022-12-08T13:11:52.939Z,7.97
2022-12-08T13:14:46.797Z,8.37
2022-12-08T13:17:23.304Z,8.10
2022-12-08T13:19:55.990Z,8.43
2022-12-08T13:22:47.406Z,6.10
2022-12-08T13:25:38.952Z,7.80
2022-12-08T13:28:27.910Z,8.27
2022-12-08T13:31:02.085Z,5.47
2022-12-08T13:33:38.988Z,6.93
2022-12-08T13:36:17.518Z,9.17
2022-12-08T13:38:47.380Z,7.97
2022-12-08T13:41:21.983Z,8.17
2022-12-08T13:44:50.227Z,8.03
2022-12-08T13:58:38.317Z,6.30
2022-12-08T14:01:12.355Z,8.73
2022-12-08T14:06:51.784Z,7.40
2022-12-08T14:09:37.933Z,7.87
2022-12-08T14:12:13.897Z,6.60
2022-12-08T14:17:32.446Z,8.40
2022-12-08T14:20:21.896Z,8.90
2022-12-08T14:22:50.388Z,7.27
2022-12-08T14:25:19.072Z,9.47
2022-12-08T14:27:47.945Z,7.73
2022-12-08T14:30:15.113Z,8.30
2022-12-08T14:32:41.933Z,8.70
2022-12-08T14:35:08.858Z,8.30
2022-12-08T14:37:35.774Z,6.97
2022-12-08T14:40:25.074Z,9.00
2022-12-08T14:43:05.266Z,8.53
2022-12-08T14:45:34.957Z,8.90
2022-12-08T14:48:23.607Z,7.50
2022-12-08T14:51:12.333Z,8.37
2022-12-08T14:54:00.125Z,7.90
2022-12-08T14:56:39.236Z,8.57
2022-12-08T14:59:06.139Z,7.17
2022-12-08T15:01:34.375Z,9.60
2022-12-08T15:04:07.996Z,9.23
2022-12-08T15:06:35.361Z,10.10
2022-12-08T15:09:16.676Z,10.73
2022-12-08T15:11:44.177Z,9.30
2022-12-08T15:14:29.354Z,8.73
2022-12-08T15:16:56.861Z,7.70
2022-12-08T15:19:32.427Z,9.30
2022-12-08T15:22:11.042Z,9.70
2022-12-08T15:24:38.116Z,9.23
2022-12-08T15:27:05.122Z,10.27
2022-12-08T15:29:32.352Z,10.50
2022-12-08T15:32:01.604Z,10.20
2022-12-08T15:34:28.724Z,11.30
2022-12-08T15:36:55.717Z,9.40
2022-12-08T15:39:34.881Z,10.03
2022-12-08T15:42:03.456Z,10.50
2022-12-08T15:44:32.856Z,10.63
2022-12-08T15:47:00.122Z,9.90
2022-12-08T15:49:27.342Z,10.93
2022-12-08T15:52:01.950Z,11.30
2022-12-08T15:54:34.892Z,9.90
2022-12-08T15:59:49.267Z,9.40
2022-12-08T16:02:22.333Z,10.00
2022-12-08T16:07:38.401Z,9.20
2022-12-08T16:10:07.999Z,10.30
2022-12-08T16:16:00.714Z,11.63
2022-12-08T16:18:32.808Z,9.77
2022-12-08T16:21:19.042Z,9.93
2022-12-08T16:23:47.251Z,8.57
2022-12-08T16:27:01.068Z,10.87
2022-12-08T16:29:07.598Z,11.73
2022-12-08T16:31:34.840Z,11.03
2022-12-08T16:34:01.963Z,10.93
2022-12-08T16:36:28.989Z,9.67
2022-12-08T16:38:55.877Z,11.93
2022-12-08T16:41:41.349Z,11.50
2022-12-08T16:44:08.422Z,11.67
2022-12-08T16:46:36.105Z,8.63
2022-12-08T16:49:04.735Z,11.60
2022-12-08T16:51:31.772Z,11.90
2022-12-08T16:53:58.807Z,10.80
2022-12-08T16:56:32.542Z,11.57
2022-12-08T16:59:01.747Z,11.00
2022-12-08T17:01:28.835Z,11.37
2022-12-08T17:04:29.105Z,13.27
2022-12-08T17:06:42.754Z,12.10
2022-12-08T17:09:09.644Z,12.80
2022-12-08T17:11:43.081Z,11.83
2022-12-08T17:14:14.238Z,12.10
2022-12-08T17:16:42.586Z,12.17
2022-12-08T17:19:09.944Z,12.43
2022-12-08T17:21:36.989Z,11.40
2022-12-08T17:24:04.897Z,13.03
2022-12-08T17:26:31.856Z,14.17
2022-12-08T17:29:00.888Z,13.43
2022-12-08T17:31:30.613Z,12.87
2022-12-08T17:34:00.072Z,12.67
2022-12-08T17:36:27.074Z,12.73
2022-12-08T17:38:54.541Z,11.53
2022-12-08T17:41:21.586Z,13.00
2022-12-08T17:43:48.531Z,12.70
2022-12-08T17:46:19.558Z,13.23
2022-12-08T17:48:47.414Z,11.17
2022-12-08T17:51:15.034Z,11.90
2022-12-08T17:53:42.102Z,12.07
2022-12-08T17:56:18.880Z,11.67
2022-12-08T17:58:52.596Z,12.52
2022-12-08T18:01:21.598Z,13.73
2022-12-08T18:03:48.670Z,12.07
2022-12-08T18:06:17.774Z,10.80
2022-12-08T18:08:45.245Z,11.73
2022-12-08T18:11:15.880Z,13.67
2022-12-08T18:13:42.816Z,12.93
2022-12-08T18:16:10.256Z,13.57
2022-12-08T18:18:37.289Z,11.37
2022-12-08T18:21:04.525Z,11.63
2022-12-08T18:23:31.779Z,11.67
2022-12-08T18:25:59.025Z,8.13
2022-12-08T18:28:26.002Z,11.63
2022-12-08T18:30:52.960Z,13.67
2022-12-08T18:33:19.961Z,10.50
2022-12-08T18:35:46.902Z,10.80
2022-12-08T18:38:14.391Z,12.03
2022-12-08T18:40:41.394Z,10.57
2022-12-08T18:43:08.738Z,12.83
2022-12-08T18:45:38.824Z,11.83
2022-12-08T18:48:08.340Z,10.83
2022-12-08T18:50:35.273Z,13.33
2022-12-08T18:53:02.219Z,11.07
2022-12-08T18:55:29.297Z,11.57
2022-12-08T18:57:56.241Z,12.17
2022-12-08T19:00:23.336Z,13.37
2022-12-08T19:02:50.376Z,12.10
2022-12-08T19:05:17.703Z,11.93
2022-12-08T19:07:45.831Z,11.67
2022-12-08T19:10:13.214Z,10.60
2022-12-08T19:12:40.338Z,11.93
2022-12-08T19:15:08.242Z,12.73
2022-12-08T19:17:35.421Z,10.60
2022-12-08T19:20:02.529Z,11.87
2022-12-08T19:22:30.426Z,11.83
2022-12-08T19:24:57.389Z,11.63
2022-12-08T19:27:24.289Z,12.17
2022-12-08T19:29:51.324Z,12.73
2022-12-08T19:32:18.563Z,12.30
2022-12-08T19:34:45.473Z,12.30
2022-12-08T19:37:13.083Z,12.07
2022-12-08T19:39:59.279Z,11.17
2022-12-08T19:42:45.115Z,12.20
2022-12-08T19:45:15.766Z,10.47
2022-12-08T19:47:43.094Z,14.23
2022-12-08T19:50:30.645Z,13.17
2022-12-08T19:52:57.904Z,13.13
2022-12-08T19:55:25.929Z,12.30
2022-12-08T19:57:53.522Z,13.63
2022-12-08T20:00:21.382Z,14.40
2022-12-08T20:02:48.496Z,14.10
2022-12-08T20:05:16.144Z,12.63
2022-12-08T20:07:43.705Z,12.73
2022-12-08T20:10:22.176Z,13.53
2022-12-08T20:12:49.237Z,13.80
2022-12-08T20:15:16.326Z,11.93
2022-12-08T20:17:43.547Z,11.70
2022-12-08T20:20:12.208Z,12.00
2022-12-08T20:22:39.193Z,14.33
2022-12-08T20:25:06.655Z,13.93
2022-12-08T20:27:33.726Z,13.70
2022-12-08T20:30:00.670Z,15.03
2022-12-08T20:32:27.781Z,14.23
2022-12-08T20:34:54.778Z,14.40
2022-12-08T20:37:21.652Z,14.00
2022-12-08T20:39:48.872Z,14.50
2022-12-08T20:42:15.872Z,14.13
2022-12-08T20:44:44.678Z,14.17
2022-12-08T20:47:12.879Z,12.60
2022-12-08T20:49:40.085Z,13.77
2022-12-08T20:52:08.265Z,12.60
2022-12-08T20:54:37.014Z,15.00
2022-12-08T20:57:04.388Z,13.87
2022-12-08T20:59:31.561Z,13.87
2022-12-08T21:02:00.679Z,13.60
2022-12-08T21:04:28.120Z,13.90
2022-12-08T21:06:55.144Z,14.00
2022-12-08T21:09:22.475Z,12.23
2022-12-08T21:11:49.533Z,13.07
2022-12-08T21:14:16.510Z,14.03
2022-12-08T21:16:43.468Z,14.87
2022-12-08T21:19:11.380Z,14.07
2022-12-08T21:21:38.837Z,13.80
2022-12-08T21:24:06.339Z,13.40
2022-12-08T21:26:33.449Z,13.47
2022-12-08T21:29:00.391Z,13.67
2022-12-08T21:31:29.512Z,13.17
2022-12-08T21:33:56.664Z,14.60
2022-12-08T21:36:23.926Z,13.67
2022-12-08T21:38:51.307Z,13.17
2022-12-08T21:41:41.745Z,14.23
2022-12-08T21:44:11.034Z,13.30
2022-12-08T21:46:38.546Z,14.83
2022-12-08T21:49:05.701Z,13.90
2022-12-08T21:51:33.877Z,12.83
2022-12-08T21:54:01.060Z,12.57
2022-12-08T21:56:28.193Z,11.00
2022-12-08T21:58:55.265Z,14.60
2022-12-08T22:01:22.333Z,15.33
2022-12-08T22:03:49.456Z,15.13
2022-12-08T22:06:16.723Z,15.23
2022-12-08T22:08:43.999Z,14.83
2022-12-08T22:11:12.091Z,16.00
2022-12-08T22:13:41.266Z,15.50
2022-12-08T22:16:11.519Z,10.67
2022-12-08T22:18:38.849Z,15.40
2022-12-08T22:21:15.427Z,15.03
2022-12-08T22:23:42.935Z,15.38
2022-12-08T22:26:11.415Z,16.30
2022-12-08T22:28:41.670Z,16.63
2022-12-08T22:31:14.632Z,14.80
2022-12-08T22:33:42.768Z,16.07
2022-12-08T22:36:22.389Z,15.87
2022-12-08T22:38:50.594Z,15.10
2022-12-08T22:41:18.251Z,13.33
2022-12-08T22:43:46.007Z,14.90
2022-12-08T22:46:16.312Z,15.10
2022-12-08T22:48:43.770Z,14.60
2022-12-08T22:51:11.487Z,16.30
2022-12-08T22:53:38.836Z,15.30
2022-12-08T22:56:07.059Z,14.87
2022-12-08T22:58:34.457Z,14.73
2022-12-08T23:01:01.356Z,15.70
2022-12-08T23:03:28.458Z,16.33
2022-12-08T23:05:55.663Z,16.30
2022-12-08T23:08:23.741Z,15.20
2022-12-08T23:10:52.316Z,15.83
2022-12-08T23:13:20.172Z,16.43
2022-12-08T23:15:47.771Z,15.70
2022-12-08T23:18:19.167Z,12.77
2022-12-08T23:20:46.949Z,16.67
2022-12-08T23:23:14.506Z,13.47
2022-12-08T23:25:43.079Z,17.30
2022-12-08T23:28:10.745Z,15.00
2022-12-08T23:30:40.442Z,16.20
2022-12-08T23:33:07.848Z,14.20
2022-12-08T23:35:35.052Z,15.37
2022-12-08T23:38:02.166Z,16.37
2022-12-08T23:40:29.062Z,16.07
2022-12-08T23:42:56.101Z,14.27
2022-12-08T23:45:23.009Z,15.30
2022-12-08T23:47:49.992Z,15.30
2022-12-08T23:50:17.344Z,18.23
2022-12-08T23:52:44.825Z,14.13
2022-12-08T23:55:11.806Z,14.95
2022-12-08T23:57:40.090Z,16.50
